Time;durP1;ratioP1;P1;durP2;ratioP2;P2;SDS_P1;SDS_P2;PMS_P1;PMS_P2;Temp;Humidity;BMP_temperature;BMP_pressure;BME280_temperature;BME280_humidity;BME280_pressure;Samples;Min_cycle;Max_cycle;Signal;HPM_P1;HPM_P2
2021/11/30 00:00:59;;;;;;;32.40;16.55;;;;;;;1.30;87.10;99750.69;8752684;33;20283;-73
2021/11/30 00:06:03;;;;;;;35.05;13.98;;;;;;;1.30;86.92;99755.13;8778728;33;20435;-74
2021/11/30 00:11:09;;;;;;;30.20;15.05;;;;;;;1.43;86.81;99743.81;8778308;33;20182;-73
2021/11/30 00:16:14;;;;;;;30.02;13.40;;;;;;;1.52;86.80;99723.94;8778070;33;20269;-74
2021/11/30 00:21:17;;;;;;;27.60;14.35;;;;;;;1.53;86.84;99744.16;8778162;33;20187;-74
2021/11/30 00:26:20;;;;;;;21.02;12.45;;;;;;;1.60;87.02;99732.31;8777950;33;20678;-73
2021/11/30 00:31:24;;;;;;;15.60;9.18;;;;;;;1.62;86.26;99718.97;8777618;33;20507;-73
2021/11/30 00:36:27;;;;;;;12.70;6.20;;;;;;;1.46;86.43;99713.69;8777940;33;20143;-73
2021/11/30 00:41:31;;;;;;;18.25;12.88;;;;;;;1.84;85.02;99716.88;8777684;33;20663;-73
2021/11/30 00:46:37;;;;;;;14.13;9.02;;;;;;;1.92;84.44;99700.53;8752976;33;20186;-72
2021/11/30 00:51:44;;;;;;;16.13;9.75;;;;;;;1.64;85.19;99687.97;8777194;33;20178;-72
2021/11/30 00:56:49;;;;;;;10.57;7.43;;;;;;;1.61;85.79;99688.16;8776966;33;20215;-72
2021/11/30 01:01:55;;;;;;;14.32;7.97;;;;;;;1.33;87.48;99681.72;8775749;33;20575;-73
2021/11/30 01:06:58;;;;;;;17.88;10.48;;;;;;;1.35;88.62;99685.16;8776365;33;20182;-73
2021/11/30 01:12:01;;;;;;;10.45;6.65;;;;;;;0.94;90.83;99672.31;8776547;33;20139;-73
2021/11/30 01:17:05;;;;;;;10.80;6.63;;;;;;;0.93;91.23;99675.88;8776437;33;20182;-73
2021/11/30 01:22:09;;;;;;;15.23;9.93;;;;;;;1.14;90.79;99676.56;8775747;33;20679;-73
2021/11/30 01:27:12;;;;;;;15.85;9.68;;;;;;;1.13;90.78;99674.00;8776479;33;20219;-72
2021/11/30 01:32:16;;;;;;;9.80;6.63;;;;;;;1.04;90.59;99657.69;8750783;33;21915;-73
2021/11/30 01:37:19;;;;;;;12.50;7.65;;;;;;;1.18;90.38;99651.66;8775961;33;20484;-74
2021/11/30 01:42:23;;;;;;;16.73;8.75;;;;;;;1.10;90.33;99640.63;8775547;33;21171;-74
2021/11/30 01:47:41;;;;;;;18.48;10.00;;;;;;;1.12;90.25;99627.31;8775654;33;20216;-73
2021/11/30 01:52:46;;;;;;;14.35;6.97;;;;;;;1.16;89.83;99631.50;8775305;33;20143;-73
2021/11/30 01:57:51;;;;;;;9.93;7.10;;;;;;;1.23;88.77;99615.19;8750020;33;20465;-73
2021/11/30 02:02:57;;;;;;;14.02;8.02;;;;;;;1.33;88.07;99609.44;8775497;33;21358;-73
2021/11/30 02:08:00;;;;;;;13.80;6.90;;;;;;;1.21;87.46;99618.91;8780000;33;20419;-73
2021/11/30 02:13:04;;;;;;;8.52;7.13;;;;;;;1.15;86.74;99609.50;8776290;33;20238;-73
2021/11/30 02:18:13;;;;;;;15.48;9.40;;;;;;;1.08;86.72;99607.28;8775161;33;20179;-73
2021/11/30 02:23:30;;;;;;;15.02;8.45;;;;;;;0.98;85.54;99580.44;8775111;33;20704;-73
2021/11/30 02:28:34;;;;;;;10.27;6.30;;;;;;;0.91;84.79;99597.59;8749737;33;20519;-73
2021/11/30 02:33:37;;;;;;;10.47;6.73;;;;;;;0.90;85.39;99554.41;8774736;33;20247;-74
2021/11/30 02:38:42;;;;;;;15.10;7.63;;;;;;;0.70;86.63;99539.63;8775202;33;20196;-74
2021/11/30 02:43:45;;;;;;;16.83;10.83;;;;;;;0.75;86.82;99531.47;8774463;33;20648;-73
2021/11/30 02:48:48;;;;;;;12.52;6.13;;;;;;;0.31;88.14;99509.09;8774809;33;20179;-74
2021/11/30 02:53:53;;;;;;;13.37;8.00;;;;;;;0.00;87.79;99512.50;8774482;33;20147;-73
2021/11/30 02:58:57;;;;;;;15.67;10.47;;;;;;;0.17;89.45;99507.19;8773907;33;20631;-74
2021/11/30 03:04:00;;;;;;;18.73;8.97;;;;;;;-0.11;89.77;99510.41;8774367;33;20190;-74
2021/11/30 03:09:05;;;;;;;14.33;9.07;;;;;;;0.04;89.91;99487.63;8785224;33;20287;-74
2021/11/30 03:14:08;;;;;;;15.87;8.70;;;;;;;-0.28;90.42;99498.03;8818860;33;20200;-73
2021/11/30 03:19:12;;;;;;;11.13;7.23;;;;;;;-0.28;90.72;99484.00;8799346;33;21601;-73
2021/11/30 03:24:17;;;;;;;21.00;12.20;;;;;;;-0.23;90.89;99528.63;8751101;33;20994;-73
2021/11/30 03:29:20;;;;;;;14.13;9.00;;;;;;;-0.50;90.27;99463.94;8779560;33;20594;-73
2021/11/30 03:34:24;;;;;;;16.00;10.73;;;;;;;-0.42;90.14;99453.00;8779410;33;20191;-73
2021/11/30 03:39:29;;;;;;;13.20;9.03;;;;;;;-0.50;90.46;99419.09;8753647;33;20563;-73
2021/11/30 03:44:32;;;;;;;16.63;9.77;;;;;;;-0.49;90.63;99409.44;8778869;33;20143;-74
2021/11/30 03:49:35;;;;;;;10.13;6.83;;;;;;;-0.70;91.48;99395.53;8778347;33;20158;-73
2021/11/30 03:54:42;;;;;;;14.30;8.77;;;;;;;-0.67;91.54;99373.41;8778153;33;20143;-73
2021/11/30 03:59:45;;;;;;;20.57;12.73;;;;;;;-0.67;91.74;99362.88;8778006;33;20240;-73
2021/11/30 04:04:48;;;;;;;17.90;10.87;;;;;;;-0.69;91.03;99357.66;8778449;33;20194;-74
2021/11/30 04:09:52;;;;;;;12.03;7.30;;;;;;;-0.84;92.27;99332.94;8752902;33;20190;-74
2021/11/30 04:14:55;;;;;;;20.53;9.80;;;;;;;-0.82;91.94;99312.63;8777953;33;20998;-74
2021/11/30 04:19:58;;;;;;;21.57;9.97;;;;;;;-0.84;92.02;99301.28;8777530;33;20136;-74
2021/11/30 04:25:04;;;;;;;16.77;9.37;;;;;;;-0.92;92.69;99299.97;8778190;33;20489;-74
2021/11/30 04:30:09;;;;;;;19.33;6.63;;;;;;;-0.93;93.18;99290.34;8777238;33;20201;-73
2021/11/30 04:35:13;;;;;;;16.20;9.77;;;;;;;-0.93;92.72;99304.41;8777939;33;20341;-73
2021/11/30 04:40:18;;;;;;;12.90;8.10;;;;;;;-1.09;93.34;99296.41;8777534;33;21086;-73
2021/11/30 04:45:25;;;;;;;11.03;5.73;;;;;;;-0.84;92.65;99282.00;8777560;33;20216;-74
2021/11/30 04:50:31;;;;;;;6.80;4.47;;;;;;;-1.00;93.44;99276.66;8781428;33;20179;-74
2021/11/30 04:55:35;;;;;;;9.13;4.97;;;;;;;-0.90;92.71;99275.25;8751510;33;20264;-73
2021/11/30 05:00:39;;;;;;;11.90;7.60;;;;;;;-0.69;92.74;99252.16;8751817;33;21023;-74
2021/11/30 05:05:43;;;;;;;4.87;4.13;;;;;;;-0.81;93.94;99243.13;8777047;33;20142;-73
2021/11/30 05:10:47;;;;;;;11.13;8.13;;;;;;;-0.57;93.75;99227.78;8776104;33;20675;-73
2021/11/30 05:15:50;;;;;;;10.63;6.17;;;;;;;-0.57;93.05;99224.31;8776012;33;20123;-73
2021/11/30 05:20:54;;;;;;;9.93;4.50;;;;;;;-0.54;92.87;99209.16;8776174;33;20739;-73
2021/11/30 05:26:03;;;;;;;10.47;6.17;;;;;;;-0.44;93.05;99191.03;8776592;33;21549;-73
2021/11/30 05:31:08;;;;;;;12.33;8.67;;;;;;;-0.41;93.05;99174.19;8776326;33;20222;-73
2021/11/30 05:36:11;;;;;;;9.30;5.93;;;;;;;-0.41;93.51;99171.53;8777136;33;20278;-73
2021/11/30 05:41:16;;;;;;;7.67;5.57;;;;;;;-0.33;93.25;99150.84;8776521;33;20444;-73
2021/11/30 05:46:20;;;;;;;5.73;4.97;;;;;;;-0.31;93.68;99164.81;8775648;33;20197;-73
2021/11/30 05:51:23;;;;;;;7.47;5.70;;;;;;;-0.25;94.42;99159.19;8776544;33;20190;-72
2021/11/30 05:56:28;;;;;;;8.87;6.03;;;;;;;-0.04;93.66;99143.09;8750951;33;20200;-73
2021/11/30 06:01:31;;;;;;;9.07;5.80;;;;;;;-0.00;94.29;99178.94;8776146;33;21361;-73
2021/11/30 06:06:37;;;;;;;8.73;6.80;;;;;;;0.10;94.46;99143.16;8751468;33;20229;-73
2021/11/30 06:11:44;;;;;;;10.00;7.07;;;;;;;0.38;93.42;99145.91;8776746;33;20135;-74
2021/11/30 06:16:47;;;;;;;10.40;6.57;;;;;;;0.20;93.92;99125.00;8750946;33;20182;-73
2021/11/30 06:21:51;;;;;;;7.73;6.13;;;;;;;0.43;92.88;99121.84;8776077;33;20192;-73
2021/11/30 06:26:55;;;;;;;11.05;6.60;;;;;;;0.48;93.49;99118.94;8775625;33;20235;-73
2021/11/30 06:31:58;;;;;;;7.50;4.80;;;;;;;0.53;93.63;99098.38;8776043;33;20150;-74
2021/11/30 06:37:06;;;;;;;9.20;4.83;;;;;;;0.71;93.63;99091.13;8776621;33;21632;-74
2021/11/30 06:42:11;;;;;;;11.03;6.70;;;;;;;0.87;93.16;99120.13;8750750;33;20143;-74
2021/11/30 06:47:15;;;;;;;9.57;6.05;;;;;;;0.84;92.65;99092.91;8776373;33;20717;-73
2021/11/30 06:52:18;;;;;;;13.27;7.63;;;;;;;1.08;93.03;99088.88;8769058;33;20313;-72
2021/11/30 06:57:22;;;;;;;9.38;5.70;;;;;;;0.95;93.76;99091.41;8789021;33;20256;-74
2021/11/30 07:02:25;;;;;;;12.88;7.80;;;;;;;1.09;94.28;99091.41;8776724;33;20186;-74
2021/11/30 07:07:33;;;;;;;11.98;6.97;;;;;;;1.24;94.41;99086.97;8774155;33;20179;-73
2021/11/30 07:12:50;;;;;;;14.65;7.57;;;;;;;1.37;94.37;99087.91;8749849;33;20251;-72
2021/11/30 07:17:53;;;;;;;14.27;9.07;;;;;;;1.55;93.77;99085.00;8774785;33;20437;-72
2021/11/30 07:22:57;;;;;;;22.00;12.77;;;;;;;1.73;92.99;99095.25;8774559;33;20408;-74
2021/11/30 07:28:02;;;;;;;15.82;9.93;;;;;;;1.67;94.61;99103.59;8782660;33;20189;-72
2021/11/30 07:33:05;;;;;;;13.13;7.85;;;;;;;1.72;95.07;99098.84;8803109;33;21085;-72
2021/11/30 07:38:09;;;;;;;15.65;9.40;;;;;;;1.80;95.49;99110.72;8758400;33;20155;-72
2021/11/30 07:43:13;;;;;;;14.85;10.02;;;;;;;1.78;95.43;99102.88;8774789;33;20236;-73
2021/11/30 07:48:17;;;;;;;9.50;6.60;;;;;;;2.05;94.99;99102.88;8774350;33;20158;-73
2021/11/30 07:53:21;;;;;;;8.68;5.85;;;;;;;2.03;94.90;99093.31;8773664;33;20768;-73
2021/11/30 07:58:27;;;;;;;12.70;9.10;;;;;;;2.18;94.48;99092.31;8773232;33;20183;-72
2021/11/30 08:03:30;;;;;;;9.52;7.03;;;;;;;2.34;93.87;99095.63;8773456;33;20221;-72
2021/11/30 08:08:33;;;;;;;11.65;7.03;;;;;;;2.32;94.64;99083.44;8774262;33;20222;-73
2021/11/30 08:13:37;;;;;;;10.65;7.50;;;;;;;2.53;94.08;99079.38;8778553;33;21039;-72
2021/11/30 08:18:41;;;;;;;7.68;5.20;;;;;;;2.49;94.24;99082.28;8797245;33;20301;-74
2021/11/30 08:23:44;;;;;;;9.77;6.18;;;;;;;2.80;93.32;99094.34;8806596;33;21833;-73
2021/11/30 08:28:48;;;;;;;9.35;5.75;;;;;;;2.91;92.17;99090.91;8784110;33;20268;-74
2021/11/30 08:33:52;;;;;;;6.85;4.90;;;;;;;2.98;91.80;99100.16;8834563;33;20196;-73
2021/11/30 08:38:55;;;;;;;5.00;3.83;;;;;;;2.71;93.66;99102.91;8838368;33;20185;-74
2021/11/30 08:44:01;;;;;;;8.25;5.15;;;;;;;2.98;93.23;99078.94;8832203;33;20196;-73
2021/11/30 08:49:19;;;;;;;6.43;3.85;;;;;;;2.85;94.23;99084.22;8810382;33;20923;-72
2021/11/30 08:54:22;;;;;;;4.32;3.50;;;;;;;2.83;94.79;99075.56;8837691;33;22066;-73
2021/11/30 08:59:28;;;;;;;5.40;3.42;;;;;;;2.79;95.66;99084.66;8811971;33;20142;-73
2021/11/30 09:04:31;;;;;;;3.67;2.70;;;;;;;2.87;96.54;99073.53;8837704;33;20310;-73
2021/11/30 09:09:34;;;;;;;4.50;3.08;;;;;;;3.21;95.15;99077.28;8839165;33;20143;-75
2021/11/30 09:14:40;;;;;;;2.05;1.88;;;;;;;3.16;94.82;99063.53;8849055;33;20185;-75
2021/11/30 09:19:43;;;;;;;2.42;1.95;;;;;;;3.27;95.05;99064.44;8837176;33;20240;-74
2021/11/30 09:24:46;;;;;;;3.20;2.33;;;;;;;3.40;94.97;99051.16;8812943;33;20231;-73
2021/11/30 09:29:50;;;;;;;1.90;1.70;;;;;;;3.50;94.41;99052.16;8805482;33;20227;-74
2021/11/30 09:34:53;;;;;;;4.00;2.78;;;;;;;3.64;95.00;99037.03;8792311;33;20448;-73
2021/11/30 09:39:58;;;;;;;3.97;2.33;;;;;;;3.79;94.85;99035.06;8751792;33;20144;-73
2021/11/30 09:45:05;;;;;;;3.33;2.20;;;;;;;3.75;95.34;99044.19;8777508;33;20144;-74
2021/11/30 09:50:13;;;;;;;3.40;2.40;;;;;;;3.81;95.94;99046.41;8776414;33;20863;-73
2021/11/30 09:55:17;;;;;;;1.80;1.48;;;;;;;3.83;96.11;99058.59;8776191;33;20190;-73
2021/11/30 10:00:26;;;;;;;1.85;1.60;;;;;;;4.07;95.71;99049.78;8776082;33;20179;-74
2021/11/30 10:05:30;;;;;;;3.35;2.45;;;;;;;4.17;94.82;99061.41;8784385;33;21572;-73
2021/11/30 10:10:39;;;;;;;1.70;1.52;;;;;;;4.30;95.25;99046.19;8813627;33;20195;-74
2021/11/30 10:16:00;;;;;;;2.88;1.95;;;;;;;4.44;94.32;99054.94;8805588;32;20215;-73
2021/11/30 10:21:21;;;;;;;2.13;1.60;;;;;;;4.56;93.91;99054.00;8807469;32;20651;-73
2021/11/30 10:26:28;;;;;;;2.53;1.75;;;;;;;4.56;94.24;99046.88;8835514;33;20424;-73
2021/11/30 10:31:36;;;;;;;2.40;2.08;;;;;;;4.65;94.51;99028.50;8835691;33;20758;-73
2021/11/30 10:36:57;;;;;;;1.70;1.60;;;;;;;4.80;93.75;99036.16;8811074;33;20222;-73
2021/11/30 10:42:14;;;;;;;2.50;1.90;;;;;;;4.61;94.20;99042.06;8835674;33;20186;-72
2021/11/30 10:47:22;;;;;;;1.95;1.70;;;;;;;4.79;93.82;99042.41;8835250;33;20998;-72
2021/11/30 10:52:28;;;;;;;4.20;2.38;;;;;;;4.76;93.81;99045.31;8835933;33;20130;-72
2021/11/30 10:57:32;;;;;;;3.20;2.10;;;;;;;4.93;94.24;99022.69;8808924;33;20212;-73
2021/11/30 11:02:54;;;;;;;3.17;2.30;;;;;;;4.95;94.13;99039.41;8834668;33;20239;-72
2021/11/30 11:08:08;;;;;;;5.82;2.58;;;;;;;4.89;93.97;99036.38;8835062;33;20138;-71
2021/11/30 11:13:27;;;;;;;4.07;2.10;;;;;;;5.08;93.69;99054.44;8834212;33;21344;-71
2021/11/30 11:18:34;;;;;;;5.88;2.10;;;;;;;5.22;93.01;99057.69;8817400;33;20939;-72
2021/11/30 11:23:41;;;;;;;3.20;1.45;;;;;;;5.11;93.02;99032.91;8784448;33;20244;-72
2021/11/30 11:28:45;;;;;;;2.80;2.60;;;;;;;5.12;93.61;99047.91;8774276;33;20616;-73
2021/11/30 11:33:51;;;;;;;2.80;1.60;;;;;;;5.32;93.48;99054.28;8774287;33;20200;-73
2021/11/30 11:38:54;;;;;;;4.70;2.50;;;;;;;5.30;93.84;99057.09;8774384;33;20176;-72
2021/11/30 11:43:59;;;;;;;5.72;2.70;;;;;;;5.37;92.19;99052.94;8773591;33;20564;-73
2021/11/30 11:49:06;;;;;;;4.32;2.65;;;;;;;5.43;92.23;99068.44;8778974;33;20356;-73
2021/11/30 11:54:28;;;;;;;6.75;2.30;;;;;;;5.48;91.52;99079.53;8779294;33;20905;-73
2021/11/30 11:59:35;;;;;;;6.80;2.97;;;;;;;5.52;91.60;99080.16;8778807;33;20151;-74
2021/11/30 12:04:44;;;;;;;4.28;1.95;;;;;;;5.08;93.17;99084.56;8754325;33;20674;-73
2021/11/30 12:09:48;;;;;;;4.05;1.90;;;;;;;5.24;92.68;99086.88;8779331;33;20226;-73
2021/11/30 12:14:53;;;;;;;5.05;2.00;;;;;;;5.33;92.27;99082.63;8779560;33;20273;-73
2021/11/30 12:20:13;;;;;;;5.25;2.17;;;;;;;5.42;92.42;99089.84;8778581;33;20152;-72
2021/11/30 12:25:47;;;;;;;4.63;2.30;;;;;;;5.42;91.18;99076.53;8779280;33;20186;-72
2021/11/30 12:30:52;;;;;;;6.32;2.20;;;;;;;5.49;91.25;99094.56;8777736;33;20255;-73
2021/11/30 12:36:00;;;;;;;10.07;2.40;;;;;;;5.76;89.41;99081.78;8753301;33;20170;-73
2021/11/30 12:41:29;;;;;;;7.88;2.38;;;;;;;5.74;87.89;99076.59;8777630;33;20194;-73
2021/11/30 12:46:36;;;;;;;5.22;2.15;;;;;;;6.01;87.38;99086.81;8777783;33;20447;-72
2021/11/30 12:51:40;;;;;;;6.65;2.53;;;;;;;5.60;86.03;99090.22;8759072;33;20382;-72
2021/11/30 12:56:49;;;;;;;6.72;2.25;;;;;;;5.38;85.12;99099.09;8803716;33;20444;-72
2021/11/30 13:02:18;;;;;;;6.28;2.47;;;;;;;5.43;84.35;99087.09;8806981;33;20175;-71
2021/11/30 13:07:25;;;;;;;5.07;2.10;;;;;;;5.82;83.98;99106.13;8780561;33;20735;-71
2021/11/30 13:12:30;;;;;;;4.43;2.42;;;;;;;5.67;85.17;99110.88;8804109;33;20640;-71
2021/11/30 13:17:35;;;;;;;7.90;2.17;;;;;;;5.39;85.74;99119.41;8789174;33;20172;-71
2021/11/30 13:22:40;;;;;;;7.82;2.47;;;;;;;5.57;86.58;99125.06;8779554;33;20421;-72
2021/11/30 13:28:07;;;;;;;7.07;3.03;;;;;;;5.36;85.92;99119.66;8798407;32;20190;-71
2021/11/30 13:33:15;;;;;;;11.55;4.50;;;;;;;5.61;84.17;99121.19;8776946;33;21458;-71
2021/11/30 13:38:22;;;;;;;8.75;2.72;;;;;;;5.62;84.22;99137.06;8777581;33;20194;-72
2021/11/30 13:43:29;;;;;;;9.63;2.65;;;;;;;5.41;83.73;99141.44;8776194;33;20230;-72
2021/11/30 13:48:34;;;;;;;7.13;3.00;;;;;;;5.53;83.65;99143.13;8776643;33;20367;-71
2021/11/30 13:53:48;;;;;;;6.97;2.17;;;;;;;5.20;83.50;99130.66;8775918;33;20204;-72
2021/11/30 13:59:21;;;;;;;5.40;2.20;;;;;;;5.04;83.56;99149.63;8722914;33;20998;-72
2021/11/30 14:04:35;;;;;;;5.43;1.88;;;;;;;5.26;83.03;99154.97;8776941;33;20378;-72
2021/11/30 14:09:46;;;;;;;4.05;2.00;;;;;;;5.15;82.10;99148.81;8769064;33;20194;-71
2021/11/30 14:14:53;;;;;;;6.82;2.80;;;;;;;5.13;82.64;99156.06;8806238;33;20190;-71
2021/11/30 14:19:56;;;;;;;3.58;1.85;;;;;;;5.05;82.80;99172.66;8803590;33;20195;-72
2021/11/30 14:25:08;;;;;;;7.28;2.42;;;;;;;4.88;83.38;99181.88;8796857;33;20174;-72
2021/11/30 14:30:14;;;;;;;4.80;1.58;;;;;;;4.81;84.39;99196.63;8802489;33;22272;-72
2021/11/30 14:35:17;;;;;;;5.38;1.95;;;;;;;4.82;85.22;99204.47;8811408;33;20185;-73
2021/11/30 14:40:39;;;;;;;5.95;1.98;;;;;;;4.52;86.04;99212.94;8835001;33;20184;-73
2021/11/30 14:45:45;;;;;;;10.68;2.20;;;;;;;4.47;85.35;99212.47;8835290;33;20223;-72
2021/11/30 14:50:51;;;;;;;5.68;2.60;;;;;;;4.56;85.25;99232.19;8835013;33;20963;-72
2021/11/30 14:55:58;;;;;;;5.97;2.13;;;;;;;4.50;85.09;99227.31;8874997;33;20201;-72
2021/11/30 15:01:08;;;;;;;5.38;2.60;;;;;;;4.44;86.05;99254.38;8873696;33;20131;-73
2021/11/30 15:06:16;;;;;;;5.60;1.88;;;;;;;4.39;86.46;99274.19;8836854;33;20997;-72
2021/11/30 15:11:36;;;;;;;9.32;2.83;;;;;;;4.36;87.09;99284.16;8750628;33;20174;-73
2021/11/30 15:16:43;;;;;;;6.78;2.20;;;;;;;4.14;87.76;99288.41;8750000;33;20194;-72
2021/11/30 15:21:51;;;;;;;22.70;2.42;;;;;;;4.05;87.47;99285.53;8773576;33;20188;-72
2021/11/30 15:26:58;;;;;;;4.53;2.20;;;;;;;4.18;87.36;99289.03;8774427;33;20139;-72
2021/11/30 15:32:04;;;;;;;16.73;2.75;;;;;;;4.20;87.12;99300.41;8779377;33;20221;-73
2021/11/30 15:37:09;;;;;;;9.02;2.47;;;;;;;4.29;86.86;99290.91;8776439;33;20663;-71
2021/11/30 15:42:18;;;;;;;8.32;2.92;;;;;;;4.44;85.69;99296.91;8749405;33;20667;-71
2021/11/30 15:47:24;;;;;;;11.48;2.58;;;;;;;4.47;84.97;99294.91;8775146;33;20194;-72
2021/11/30 15:52:28;;;;;;;6.40;2.05;;;;;;;4.37;85.29;99309.81;8774242;33;20181;-73
2021/11/30 15:57:36;;;;;;;5.57;1.67;;;;;;;4.29;85.09;99313.03;8773717;33;20231;-72
2021/11/30 16:02:39;;;;;;;7.45;2.72;;;;;;;4.28;84.59;99310.47;8773669;33;20128;-73
2021/11/30 16:07:42;;;;;;;7.22;2.83;;;;;;;4.33;84.55;99311.84;8774703;33;20182;-72
2021/11/30 16:12:47;;;;;;;8.00;2.72;;;;;;;4.38;83.90;99322.13;8833103;33;20182;-73
2021/11/30 16:17:51;;;;;;;5.80;2.10;;;;;;;4.34;83.86;99316.19;8833669;33;20185;-73
2021/11/30 16:22:56;;;;;;;8.70;3.80;;;;;;;4.69;83.38;99323.44;8833099;33;20613;-73
2021/11/30 16:28:01;;;;;;;8.45;2.67;;;;;;;4.51;83.75;99322.09;8833270;33;20182;-72
2021/11/30 16:33:04;;;;;;;7.25;2.42;;;;;;;4.61;83.32;99316.00;8834553;33;20193;-72
2021/11/30 16:38:07;;;;;;;7.13;2.25;;;;;;;4.28;84.06;99314.00;8837415;33;20200;-72
2021/11/30 16:43:11;;;;;;;6.55;2.58;;;;;;;4.38;83.41;99319.47;8836972;33;20899;-72
2021/11/30 16:48:14;;;;;;;8.43;2.55;;;;;;;4.30;83.75;99338.63;8836588;33;20182;-73
2021/11/30 16:53:17;;;;;;;3.30;2.28;;;;;;;4.10;84.09;99348.03;8837463;33;20277;-72
2021/11/30 16:58:22;;;;;;;8.32;2.30;;;;;;;4.20;83.71;99363.31;8837518;33;20214;-72
2021/11/30 17:03:25;;;;;;;7.07;3.00;;;;;;;4.38;83.25;99367.34;8828964;33;20186;-72
2021/11/30 17:08:28;;;;;;;7.65;2.58;;;;;;;4.09;84.03;99370.25;8839504;33;21702;-72
2021/11/30 17:13:33;;;;;;;8.38;3.75;;;;;;;4.27;83.93;99370.75;8837754;33;21241;-73
2021/11/30 17:18:36;;;;;;;5.47;2.72;;;;;;;4.47;83.47;99377.34;8837639;33;20571;-72
2021/11/30 17:23:55;;;;;;;5.70;2.60;;;;;;;4.19;84.06;99378.41;8807393;33;20216;-72
2021/11/30 17:29:03;;;;;;;10.43;2.97;;;;;;;4.19;83.80;99389.06;8804010;33;20230;-73
2021/11/30 17:34:07;;;;;;;4.78;2.75;;;;;;;4.17;83.78;99381.22;8831898;33;20743;-72
2021/11/30 17:39:10;;;;;;;6.45;2.95;;;;;;;4.47;82.87;99387.09;8836682;33;20186;-71
2021/11/30 17:44:14;;;;;;;2.75;2.15;;;;;;;4.39;83.34;99388.50;8810597;33;20637;-71
2021/11/30 17:49:17;;;;;;;6.88;3.15;;;;;;;4.62;83.27;99405.47;8811072;33;20239;-71
2021/11/30 17:54:21;;;;;;;10.10;2.85;;;;;;;4.53;83.59;99411.47;8814829;33;20187;-73
2021/11/30 17:59:26;;;;;;;7.75;3.60;;;;;;;4.48;83.79;99424.22;8815307;33;20207;-73
2021/11/30 18:04:30;;;;;;;7.07;3.45;;;;;;;4.46;84.35;99422.63;8836896;33;20209;-72
2021/11/30 18:09:33;;;;;;;9.35;3.70;;;;;;;4.41;84.58;99428.28;8835876;33;20935;-73
2021/11/30 18:14:37;;;;;;;4.72;3.38;;;;;;;4.47;84.79;99419.88;8844691;33;20326;-72
2021/11/30 18:19:41;;;;;;;6.55;3.22;;;;;;;4.35;84.52;99420.75;8836051;33;20422;-73
2021/11/30 18:24:44;;;;;;;6.78;3.05;;;;;;;4.30;84.84;99429.03;8835372;33;20715;-73
2021/11/30 18:29:49;;;;;;;6.93;3.50;;;;;;;4.32;84.43;99428.94;8835781;33;20246;-73
2021/11/30 18:34:53;;;;;;;5.60;3.10;;;;;;;4.47;84.35;99424.31;8837304;33;20239;-74
2021/11/30 18:39:56;;;;;;;9.10;3.35;;;;;;;4.53;84.22;99424.75;8835829;33;20186;-73
2021/11/30 18:45:00;;;;;;;9.20;4.38;;;;;;;4.52;84.05;99436.34;8835584;33;20276;-73
2021/11/30 18:50:05;;;;;;;9.15;4.78;;;;;;;4.78;84.02;99441.63;8810624;33;20192;-73
2021/11/30 18:55:09;;;;;;;9.23;4.30;;;;;;;4.69;84.44;99437.81;8834748;33;20185;-74
2021/11/30 19:00:17;;;;;;;9.65;4.70;;;;;;;4.58;84.25;99451.88;8809111;33;20276;-73
2021/11/30 19:05:21;;;;;;;9.10;5.03;;;;;;;4.45;85.18;99448.38;8806522;33;20189;-72
2021/11/30 19:10:25;;;;;;;10.77;4.03;;;;;;;4.38;85.32;99447.09;8802283;33;20232;-72
2021/11/30 19:15:30;;;;;;;13.15;5.88;;;;;;;4.27;85.99;99452.31;8802285;33;20505;-72
2021/11/30 19:20:33;;;;;;;12.32;5.13;;;;;;;4.39;85.69;99447.00;8800640;33;20190;-72
2021/11/30 19:25:36;;;;;;;10.30;4.95;;;;;;;4.41;85.64;99438.91;8807713;33;20191;-71
2021/11/30 19:30:46;;;;;;;13.35;5.10;;;;;;;4.13;86.30;99443.50;8793788;33;20267;-71
2021/11/30 19:35:49;;;;;;;10.50;5.47;;;;;;;4.57;85.58;99444.00;8800244;33;20202;-72
2021/11/30 19:40:55;;;;;;;8.30;5.30;;;;;;;4.55;84.99;99427.28;8753187;33;20214;-71
2021/11/30 19:46:01;;;;;;;12.38;5.78;;;;;;;4.50;85.35;99435.63;8774514;33;20197;-71
2021/11/30 19:51:07;;;;;;;12.27;5.65;;;;;;;4.50;85.41;99440.94;8772146;33;20218;-72
2021/11/30 19:56:10;;;;;;;9.63;4.93;;;;;;;4.40;85.87;99423.94;8804681;33;20562;-72
2021/11/30 20:06:35;;;;;;;6.72;4.38;;;;;;;4.75;85.49;99418.75;8806651;33;20182;-72
2021/11/30 20:11:39;;;;;;;9.13;5.40;;;;;;;4.70;85.51;99428.88;8807731;33;20187;-73
2021/11/30 20:16:43;;;;;;;8.40;4.85;;;;;;;4.64;86.65;99413.34;8806284;33;20186;-72
2021/11/30 20:21:47;;;;;;;8.68;5.50;;;;;;;4.71;86.23;99411.09;8817808;33;20235;-73
2021/11/30 20:26:50;;;;;;;9.95;4.43;;;;;;;4.86;86.23;99402.00;8813762;33;20205;-72
2021/11/30 20:31:56;;;;;;;10.23;4.97;;;;;;;4.89;86.37;99403.59;8827349;33;22048;-73
2021/11/30 20:42:19;;;;;;;8.65;5.18;;;;;;;5.00;86.34;99390.38;8829187;33;20196;-71
2021/11/30 20:47:24;;;;;;;13.00;5.13;;;;;;;5.07;86.12;99388.94;8849097;33;20135;-73
2021/11/30 20:52:27;;;;;;;12.30;5.18;;;;;;;5.16;85.72;99387.44;8806554;33;20193;-73
2021/11/30 20:57:32;;;;;;;12.05;5.22;;;;;;;5.25;85.70;99382.28;8786677;33;20783;-72
2021/11/30 21:02:39;;;;;;;9.48;5.30;;;;;;;5.22;85.59;99379.00;8810687;33;20606;-72
2021/11/30 21:07:45;;;;;;;12.57;5.22;;;;;;;5.27;85.82;99379.50;8787784;33;20550;-72
2021/11/30 21:13:08;;;;;;;11.05;6.28;;;;;;;5.32;85.70;99361.38;8753448;33;20171;-73
2021/11/30 21:18:13;;;;;;;11.77;6.10;;;;;;;5.36;85.48;99359.31;8778195;33;20199;-72
2021/11/30 21:23:17;;;;;;;12.57;7.47;;;;;;;5.27;86.24;99360.88;8752534;33;20224;-73
2021/11/30 21:28:20;;;;;;;12.65;6.32;;;;;;;5.24;86.15;99351.28;8777367;33;20187;-73
2021/11/30 21:33:25;;;;;;;10.30;5.65;;;;;;;5.33;85.91;99359.56;8777563;33;20856;-72
2021/11/30 21:38:28;;;;;;;10.43;5.72;;;;;;;5.24;86.32;99348.63;8778199;33;20342;-74
2021/11/30 21:43:31;;;;;;;13.88;5.63;;;;;;;5.30;86.08;99343.81;8777033;33;20207;-72
2021/11/30 21:48:36;;;;;;;11.05;5.80;;;;;;;5.32;86.00;99337.41;8752159;33;20761;-72
2021/11/30 21:53:39;;;;;;;9.60;5.43;;;;;;;5.28;86.39;99334.09;8776412;33;20282;-73
2021/11/30 21:58:42;;;;;;;10.90;6.00;;;;;;;5.28;86.98;99323.44;8770898;33;20226;-72
2021/11/30 22:03:50;;;;;;;12.80;7.07;;;;;;;5.17;87.88;99315.44;8802372;33;20147;-72
2021/11/30 22:08:53;;;;;;;12.15;6.95;;;;;;;5.18;88.18;99305.63;8836549;33;20284;-74
2021/11/30 22:13:56;;;;;;;14.57;7.25;;;;;;;5.14;88.49;99299.69;8835983;33;21138;-73
2021/11/30 22:19:01;;;;;;;18.58;8.23;;;;;;;5.15;88.86;99285.41;8794942;33;20195;-74
2021/11/30 22:24:05;;;;;;;13.27;7.78;;;;;;;5.24;88.97;99273.25;8800230;33;21026;-73
2021/11/30 22:29:08;;;;;;;16.33;8.18;;;;;;;5.12;89.32;99261.69;8803843;33;20683;-72
2021/11/30 22:34:12;;;;;;;14.63;8.10;;;;;;;5.22;89.13;99257.38;8799569;33;20257;-73
2021/11/30 22:39:15;;;;;;;16.27;8.77;;;;;;;5.21;89.28;99250.34;8805505;33;20702;-73
2021/11/30 22:44:19;;;;;;;14.85;8.55;;;;;;;5.18;89.64;99241.72;8776775;33;20733;-73
2021/11/30 22:49:27;;;;;;;17.83;8.52;;;;;;;5.25;89.64;99229.66;8803016;33;20193;-73
2021/11/30 22:54:30;;;;;;;13.95;7.57;;;;;;;5.13;89.76;99220.81;8780003;33;20948;-74
2021/11/30 22:59:33;;;;;;;13.98;7.32;;;;;;;5.16;89.75;99203.75;8825906;33;20503;-73
2021/11/30 23:04:37;;;;;;;13.07;7.18;;;;;;;5.23;89.63;99188.97;8835757;33;20514;-73
2021/11/30 23:09:42;;;;;;;15.40;7.18;;;;;;;5.28;89.64;99184.16;8834503;33;20277;-74
2021/11/30 23:14:46;;;;;;;14.75;7.70;;;;;;;5.33;89.60;99173.16;8835691;33;20447;-72
2021/11/30 23:19:51;;;;;;;13.00;7.75;;;;;;;5.37;89.65;99154.13;8834676;33;20273;-74
2021/11/30 23:24:56;;;;;;;12.38;7.32;;;;;;;5.29;89.66;99135.25;8835337;33;20143;-74
2021/11/30 23:30:04;;;;;;;11.32;7.25;;;;;;;5.25;89.98;99132.00;8835240;33;20138;-74
2021/11/30 23:35:17;;;;;;;11.48;6.60;;;;;;;5.30;90.07;99125.47;8838020;33;20162;-73
2021/11/30 23:40:20;;;;;;;8.88;5.65;;;;;;;5.35;90.12;99109.94;8834161;33;20181;-73
2021/11/30 23:45:23;;;;;;;10.13;6.38;;;;;;;5.37;90.67;99092.88;8839786;33;21913;-73
2021/11/30 23:50:28;;;;;;;9.43;5.63;;;;;;;5.39;90.45;99084.78;8839714;33;20444;-73
2021/11/30 23:55:31;;;;;;;9.70;5.63;;;;;;;5.53;90.27;99073.03;8840206;33;20216;-74
